createdAt,value
2022-11-05T00:00:29.968Z,10.71
2022-11-05T00:03:15.485Z,10.75
2022-11-05T00:06:00.854Z,10.73
2022-11-05T00:08:46.285Z,10.72
2022-11-05T00:11:18.055Z,10.69
2022-11-05T00:14:05.053Z,10.66
2022-11-05T00:16:44.794Z,10.65
2022-11-05T00:19:13.466Z,10.65
2022-11-05T00:21:58.636Z,10.62
2022-11-05T00:24:43.626Z,10.66
2022-11-05T00:27:11.321Z,10.67
2022-11-05T00:29:40.356Z,10.68
2022-11-05T00:32:08.005Z,10.70
2022-11-05T00:34:35.658Z,10.69
2022-11-05T00:37:03.273Z,10.65
2022-11-05T00:39:30.876Z,10.69
2022-11-05T00:42:12.361Z,10.71
2022-11-05T00:44:58.577Z,10.72
2022-11-05T00:47:43.986Z,10.76
2022-11-05T00:50:11.793Z,10.75
2022-11-05T00:52:58.099Z,10.77
2022-11-05T00:55:29.219Z,10.75
2022-11-05T00:57:57.191Z,10.78
2022-11-05T01:00:28.081Z,10.75
2022-11-05T01:02:59.068Z,10.77
2022-11-05T01:05:26.703Z,10.74
2022-11-05T01:07:54.543Z,10.71
2022-11-05T01:10:23.221Z,10.69
2022-11-05T01:12:51.011Z,10.65
2022-11-05T01:15:20.062Z,10.64
2022-11-05T01:17:49.129Z,10.58
2022-11-05T01:20:17.326Z,10.56
2022-11-05T01:22:44.979Z,10.51
2022-11-05T01:25:12.565Z,10.46
2022-11-05T01:27:40.290Z,10.45
2022-11-05T01:30:10.125Z,10.38
2022-11-05T01:32:38.437Z,10.40
2022-11-05T01:35:09.286Z,10.39
2022-11-05T01:37:37.049Z,10.36
2022-11-05T01:40:05.468Z,10.35
2022-11-05T01:42:33.745Z,10.35
2022-11-05T01:45:05.648Z,10.33
2022-11-05T01:47:39.400Z,10.30
2022-11-05T01:50:21.910Z,10.29
2022-11-05T01:52:51.434Z,10.27
2022-11-05T01:55:21.888Z,10.24
2022-11-05T01:57:50.046Z,10.22
2022-11-05T02:00:17.824Z,10.19
2022-11-05T02:02:45.717Z,10.18
2022-11-05T02:05:15.264Z,10.17
2022-11-05T02:07:44.693Z,10.13
2022-11-05T02:10:14.087Z,10.12
2022-11-05T02:12:45.134Z,10.11
2022-11-05T02:15:13.625Z,10.08
2022-11-05T02:17:51.259Z,10.03
2022-11-05T02:20:35.013Z,10.04
2022-11-05T02:23:55.734Z,10.03
2022-11-05T02:26:51.218Z,10.01
2022-11-05T02:29:45.086Z,10.00
2022-11-05T02:32:20.925Z,9.94
2022-11-05T02:34:54.385Z,9.93
2022-11-05T02:37:28.372Z,9.91
2022-11-05T02:40:02.229Z,9.90
2022-11-05T02:42:35.893Z,9.90
2022-11-05T02:45:07.757Z,9.83
2022-11-05T02:47:42.333Z,9.84
2022-11-05T02:50:19.132Z,9.79
2022-11-05T02:52:53.353Z,9.82
2022-11-05T02:55:25.753Z,9.81
2022-11-05T02:57:53.404Z,9.73
2022-11-05T03:00:46.758Z,9.80
2022-11-05T03:03:23.961Z,9.77
2022-11-05T03:06:13.089Z,9.74
2022-11-05T03:08:51.812Z,9.73
2022-11-05T03:11:21.207Z,9.65
2022-11-05T03:13:54.307Z,9.62
2022-11-05T03:16:27.214Z,9.60
2022-11-05T03:19:02.248Z,9.67
2022-11-05T03:21:38.754Z,9.66
2022-11-05T03:24:10.189Z,9.63
2022-11-05T03:26:42.302Z,9.65
2022-11-05T03:29:12.613Z,9.60
2022-11-05T03:31:42.053Z,9.59
2022-11-05T03:34:12.812Z,9.59
2022-11-05T03:36:43.056Z,9.57
2022-11-05T03:39:18.562Z,9.54
2022-11-05T03:41:49.177Z,9.44
2022-11-05T03:44:19.565Z,9.47
2022-11-05T03:46:49.346Z,9.44
2022-11-05T03:49:22.092Z,9.39
2022-11-05T03:51:52.492Z,9.39
2022-11-05T03:54:20.197Z,9.36
2022-11-05T03:56:58.051Z,9.34
2022-11-05T03:59:25.989Z,9.33
2022-11-05T04:01:54.844Z,9.30
2022-11-05T04:04:24.064Z,9.30
2022-11-05T04:07:09.328Z,9.28
2022-11-05T04:09:54.739Z,9.23
2022-11-05T04:12:40.028Z,9.19
2022-11-05T04:15:08.995Z,9.18
2022-11-05T04:17:35.588Z,9.17
2022-11-05T04:20:22.689Z,9.17
2022-11-05T04:23:08.071Z,9.10
2022-11-05T04:25:35.891Z,9.12
2022-11-05T04:28:03.489Z,9.10
2022-11-05T04:30:30.102Z,9.09
2022-11-05T04:33:03.393Z,9.07
2022-11-05T04:35:34.365Z,9.07
2022-11-05T04:38:02.840Z,9.05
2022-11-05T04:40:30.650Z,9.03
2022-11-05T04:42:58.607Z,9.01
2022-11-05T04:45:27.394Z,9.01
2022-11-05T04:47:55.097Z,9.00
2022-11-05T04:50:22.821Z,8.98
2022-11-05T04:52:51.842Z,8.96
2022-11-05T04:55:19.689Z,8.95
2022-11-05T04:57:48.769Z,8.94
2022-11-05T05:00:17.083Z,8.93
2022-11-05T05:02:45.029Z,8.90
2022-11-05T05:05:13.642Z,8.88
2022-11-05T05:07:41.544Z,8.85
2022-11-05T05:10:11.822Z,8.83
2022-11-05T05:12:39.547Z,8.83
2022-11-05T05:15:08.381Z,8.83
2022-11-05T05:17:36.002Z,8.80
2022-11-05T05:20:21.068Z,8.79
2022-11-05T05:22:53.753Z,8.79
2022-11-05T05:25:23.624Z,8.76
2022-11-05T05:27:51.425Z,8.75
2022-11-05T05:30:19.234Z,8.73
2022-11-05T05:32:46.836Z,8.74
2022-11-05T05:35:14.432Z,8.74
2022-11-05T05:37:42.064Z,8.72
2022-11-05T05:40:10.968Z,8.77
2022-11-05T05:42:43.097Z,8.76
2022-11-05T05:45:12.072Z,8.76
2022-11-05T05:47:39.708Z,8.77
2022-11-05T05:50:07.598Z,8.78
2022-11-05T05:52:35.208Z,8.79
2022-11-05T05:55:02.778Z,8.77
2022-11-05T05:57:30.372Z,8.79
2022-11-05T06:00:00.922Z,8.78
2022-11-05T06:02:28.603Z,8.78
2022-11-05T06:04:56.307Z,8.77
2022-11-05T06:07:23.975Z,8.80
2022-11-05T06:09:51.610Z,8.78
2022-11-05T06:12:19.285Z,8.79
2022-11-05T06:14:47.138Z,8.75
2022-11-05T06:17:16.247Z,8.78
2022-11-05T06:19:43.921Z,8.78
2022-11-05T06:22:11.849Z,8.77
2022-11-05T06:24:39.434Z,8.75
2022-11-05T06:27:07.032Z,8.75
2022-11-05T06:29:34.676Z,8.75
2022-11-05T06:32:02.311Z,8.75
2022-11-05T06:34:31.312Z,8.74
2022-11-05T06:36:58.945Z,8.73
2022-11-05T06:39:26.586Z,8.72
2022-11-05T06:42:17.162Z,8.74
2022-11-05T06:44:41.840Z,8.72
2022-11-05T06:47:09.466Z,8.73
2022-11-05T06:49:38.489Z,8.73
2022-11-05T06:52:06.173Z,8.73
2022-11-05T06:54:34.112Z,8.74
2022-11-05T06:57:01.723Z,8.75
2022-11-05T06:59:29.351Z,8.74
2022-11-05T07:01:57.033Z,8.78
2022-11-05T07:04:24.677Z,8.79
2022-11-05T07:06:53.705Z,8.80
2022-11-05T07:09:21.327Z,8.81
2022-11-05T07:11:48.917Z,8.82
2022-11-05T07:14:16.546Z,8.82
2022-11-05T07:16:44.117Z,8.84
2022-11-05T07:19:11.830Z,8.87
2022-11-05T07:21:40.240Z,8.89
2022-11-05T07:24:09.825Z,8.92
2022-11-05T07:26:37.452Z,8.95
2022-11-05T07:29:05.040Z,8.96
2022-11-05T07:31:32.666Z,8.98
2022-11-05T07:34:00.950Z,8.99
2022-11-05T07:36:28.551Z,9.01
2022-11-05T07:39:00.061Z,9.03
2022-11-05T07:41:29.744Z,9.07
2022-11-05T07:43:57.353Z,9.09
2022-11-05T07:46:25.063Z,9.09
2022-11-05T07:48:52.682Z,9.12
2022-11-05T07:51:20.265Z,9.16
2022-11-05T07:53:48.395Z,9.16
2022-11-05T07:56:19.169Z,9.19
2022-11-05T07:58:48.159Z,9.22
2022-11-05T08:01:15.826Z,9.24
2022-11-05T08:03:43.720Z,9.25
2022-11-05T08:08:05.058Z,9.26
2022-11-05T08:10:33.946Z,9.27
2022-11-05T08:13:01.725Z,9.27
2022-11-05T08:15:29.381Z,9.28
2022-11-05T08:18:00.252Z,9.30
2022-11-05T08:20:28.210Z,9.32
2022-11-05T08:22:56.134Z,9.37
2022-11-05T08:25:25.619Z,9.37
2022-11-05T08:27:56.861Z,9.44
2022-11-05T08:30:24.602Z,9.45
2022-11-05T08:32:52.590Z,9.53
2022-11-05T08:35:21.009Z,9.60
2022-11-05T08:38:52.818Z,9.70
2022-11-05T08:41:20.520Z,9.76
2022-11-05T08:44:39.946Z,9.92
2022-11-05T08:47:07.660Z,9.96
2022-11-05T08:49:35.285Z,9.99
2022-11-05T08:52:02.999Z,10.10
2022-11-05T08:54:30.713Z,10.27
2022-11-05T08:56:58.378Z,10.45
2022-11-05T08:59:26.074Z,10.61
2022-11-05T09:01:55.244Z,10.74
2022-11-05T09:04:23.310Z,10.85
2022-11-05T09:06:51.028Z,10.95
2022-11-05T09:09:18.709Z,11.02
2022-11-05T09:12:10.617Z,11.06
2022-11-05T09:14:34.560Z,11.11
2022-11-05T09:17:03.657Z,11.14
2022-11-05T09:19:31.716Z,11.23
2022-11-05T09:21:59.538Z,11.30
2022-11-05T09:24:27.306Z,11.35
2022-11-05T09:26:55.749Z,11.40
2022-11-05T09:29:23.483Z,11.44
2022-11-05T09:31:51.158Z,11.45
2022-11-05T09:34:20.311Z,11.48
2022-11-05T09:36:48.014Z,11.50
2022-11-05T09:39:15.717Z,11.56
2022-11-05T09:41:44.550Z,11.54
2022-11-05T09:44:15.932Z,11.51
2022-11-05T09:46:46.152Z,11.45
2022-11-05T09:49:21.094Z,11.50
2022-11-05T09:51:50.258Z,11.49
2022-11-05T09:54:17.990Z,11.50
2022-11-05T09:56:46.115Z,11.50
2022-11-05T09:59:18.825Z,11.55
2022-11-05T10:01:47.393Z,11.59
2022-11-05T10:04:41.071Z,11.65
2022-11-05T10:07:11.370Z,11.65
2022-11-05T10:09:43.029Z,11.77
2022-11-05T10:12:14.178Z,11.85
2022-11-05T10:14:45.396Z,11.98
2022-11-05T10:17:18.339Z,12.01
2022-11-05T10:19:50.294Z,12.12
2022-11-05T10:22:19.831Z,12.16
2022-11-05T10:24:48.997Z,12.21
2022-11-05T10:28:43.363Z,12.35
2022-11-05T10:31:20.956Z,12.41
2022-11-05T10:33:50.444Z,12.42
2022-11-05T10:36:23.504Z,12.42
2022-11-05T10:38:51.672Z,12.40
2022-11-05T10:41:31.028Z,12.38
2022-11-05T10:44:08.943Z,12.35
2022-11-05T10:46:39.934Z,12.37
2022-11-05T10:49:18.789Z,12.37
2022-11-05T10:51:46.650Z,12.35
2022-11-05T10:54:19.336Z,12.37
2022-11-05T10:56:47.144Z,12.38
2022-11-05T10:59:25.762Z,12.42
2022-11-05T11:02:09.446Z,12.41
2022-11-05T11:04:38.204Z,12.43
2022-11-05T11:07:07.019Z,12.45
2022-11-05T11:09:37.140Z,12.50
2022-11-05T11:12:07.238Z,12.53
2022-11-05T11:14:36.244Z,12.60
2022-11-05T11:17:27.882Z,12.66
2022-11-05T11:20:20.559Z,12.74
2022-11-05T11:22:59.972Z,12.77
2022-11-05T11:25:31.103Z,12.80
2022-11-05T11:28:03.621Z,12.85
2022-11-05T11:30:33.800Z,12.87
2022-11-05T11:33:10.692Z,12.88
2022-11-05T11:35:39.588Z,12.91
2022-11-05T11:38:08.440Z,12.96
2022-11-05T11:40:37.845Z,12.97
2022-11-05T11:43:07.583Z,13.01
2022-11-05T11:45:38.868Z,13.17
2022-11-05T11:48:07.895Z,13.27
2022-11-05T11:50:40.247Z,13.33
2022-11-05T11:53:28.439Z,13.34
2022-11-05T11:56:02.400Z,13.36
2022-11-05T11:58:39.228Z,13.36
2022-11-05T12:01:33.470Z,13.33
2022-11-05T12:04:05.217Z,13.28
2022-11-05T12:06:37.449Z,13.26
2022-11-05T12:09:12.816Z,13.19
2022-11-05T12:11:43.738Z,13.18
2022-11-05T12:14:24.332Z,13.19
2022-11-05T12:17:16.192Z,13.14
2022-11-05T12:20:01.378Z,13.13
2022-11-05T12:22:36.669Z,13.11
2022-11-05T12:25:14.904Z,13.08
2022-11-05T12:27:58.856Z,13.08
2022-11-05T12:30:26.671Z,13.10
2022-11-05T12:33:16.533Z,13.08
2022-11-05T12:35:57.827Z,13.05
2022-11-05T12:38:38.747Z,12.99
2022-11-05T12:41:13.032Z,12.94
2022-11-05T12:43:53.515Z,12.93
2022-11-05T12:46:27.795Z,12.88
2022-11-05T12:49:24.711Z,12.87
2022-11-05T12:52:18.012Z,12.90
2022-11-05T12:54:58.455Z,12.90
2022-11-05T12:57:27.599Z,12.89
2022-11-05T12:59:59.557Z,12.91
2022-11-05T13:02:30.589Z,12.92
2022-11-05T13:05:03.014Z,12.91
2022-11-05T13:07:34.745Z,12.92
2022-11-05T13:10:06.253Z,12.91
2022-11-05T13:12:36.953Z,12.93
2022-11-05T13:15:06.597Z,12.95
2022-11-05T13:17:39.273Z,12.96
2022-11-05T13:20:17.363Z,12.95
2022-11-05T13:22:46.673Z,12.97
2022-11-05T13:25:18.580Z,12.97
2022-11-05T13:27:52.992Z,12.97
2022-11-05T13:30:22.734Z,12.99
2022-11-05T13:32:56.488Z,12.97
2022-11-05T13:35:28.644Z,12.96
2022-11-05T13:38:17.120Z,12.97
2022-11-05T13:42:35.122Z,13.00
2022-11-05T13:45:20.631Z,13.00
2022-11-05T13:47:59.835Z,13.03
2022-11-05T13:50:54.547Z,13.02
2022-11-05T13:53:42.728Z,13.01
2022-11-05T13:56:21.738Z,12.97
2022-11-05T13:59:19.004Z,12.96
2022-11-05T14:01:50.223Z,12.92
2022-11-05T14:04:29.029Z,12.83
2022-11-05T14:07:10.062Z,12.80
2022-11-05T14:09:38.804Z,12.71
2022-11-05T14:12:08.666Z,12.71
2022-11-05T14:14:45.077Z,12.72
2022-11-05T14:17:17.588Z,12.75
2022-11-05T14:19:53.799Z,12.69
2022-11-05T14:22:38.563Z,12.70
2022-11-05T14:26:03.096Z,12.72
2022-11-05T14:28:52.420Z,12.71
2022-11-05T14:32:02.668Z,12.72
2022-11-05T14:34:24.873Z,12.70
2022-11-05T14:37:22.466Z,12.71
2022-11-05T14:39:50.672Z,12.67
2022-11-05T14:42:21.980Z,12.63
2022-11-05T14:45:07.397Z,12.67
2022-11-05T14:47:39.029Z,12.64
2022-11-05T14:50:11.737Z,12.63
2022-11-05T14:52:41.017Z,12.62
2022-11-05T14:55:26.438Z,12.62
2022-11-05T14:58:06.503Z,12.61
2022-11-05T15:01:52.073Z,12.57
2022-11-05T15:04:27.345Z,12.57
2022-11-05T15:08:37.243Z,12.55
2022-11-05T15:11:12.902Z,12.53
2022-11-05T15:13:49.104Z,12.52
2022-11-05T15:16:20.989Z,12.48
2022-11-05T15:18:48.705Z,12.44
2022-11-05T15:21:18.657Z,12.39
2022-11-05T15:23:48.728Z,12.37
2022-11-05T15:26:21.623Z,12.35
2022-11-05T15:28:50.598Z,12.33
2022-11-05T15:31:26.647Z,12.27
2022-11-05T15:34:12.831Z,12.25
2022-11-05T15:36:40.450Z,12.25
2022-11-05T15:39:29.380Z,12.27
2022-11-05T15:41:57.818Z,12.27
2022-11-05T15:44:30.463Z,12.27
2022-11-05T15:47:16.703Z,12.28
2022-11-05T15:49:45.980Z,12.28
2022-11-05T15:52:15.068Z,12.22
2022-11-05T15:54:44.341Z,12.22
2022-11-05T15:57:22.116Z,12.22
2022-11-05T15:59:49.883Z,12.19
2022-11-05T16:02:26.623Z,12.17
2022-11-05T16:04:54.429Z,12.19
2022-11-05T16:07:22.405Z,12.19
2022-11-05T16:09:56.196Z,12.20
2022-11-05T16:12:34.722Z,12.18
2022-11-05T16:15:20.159Z,12.19
2022-11-05T16:17:51.002Z,12.14
2022-11-05T16:20:27.678Z,12.15
2022-11-05T16:22:56.831Z,12.13
2022-11-05T16:25:29.736Z,12.11
2022-11-05T16:27:57.762Z,12.08
2022-11-05T16:30:25.945Z,12.07
2022-11-05T16:32:53.713Z,12.08
2022-11-05T16:35:22.690Z,12.09
2022-11-05T16:37:52.371Z,12.10
2022-11-05T16:40:22.850Z,12.10
2022-11-05T16:42:52.499Z,12.08
2022-11-05T16:45:23.098Z,12.06
2022-11-05T16:47:51.289Z,12.06
2022-11-05T16:50:22.677Z,12.05
2022-11-05T16:52:50.710Z,12.04
2022-11-05T16:55:18.992Z,12.00
2022-11-05T16:57:48.920Z,11.99
2022-11-05T17:00:19.988Z,11.98
2022-11-05T17:02:48.356Z,11.99
2022-11-05T17:05:22.677Z,11.98
2022-11-05T17:07:50.330Z,11.97
2022-11-05T17:10:18.159Z,11.97
2022-11-05T17:12:46.709Z,11.97
2022-11-05T17:15:24.302Z,11.98
2022-11-05T17:17:52.994Z,11.96
2022-11-05T17:20:28.582Z,11.99
2022-11-05T17:22:56.520Z,11.96
2022-11-05T17:25:24.523Z,11.97
2022-11-05T17:27:52.336Z,11.97
2022-11-05T17:30:20.520Z,11.94
2022-11-05T17:32:49.606Z,11.92
2022-11-05T17:35:17.899Z,11.91
2022-11-05T17:37:45.553Z,11.89
2022-11-05T17:40:16.159Z,11.89
2022-11-05T17:42:44.339Z,11.88
2022-11-05T17:45:13.911Z,11.87
2022-11-05T17:47:41.852Z,11.88
2022-11-05T17:50:13.240Z,11.86
2022-11-05T17:52:40.803Z,11.88
2022-11-05T17:55:16.491Z,11.88
2022-11-05T17:57:45.397Z,11.88
2022-11-05T18:00:15.179Z,11.90
2022-11-05T18:02:42.866Z,11.90
2022-11-05T18:05:12.233Z,11.91
2022-11-05T18:07:39.970Z,11.91
2022-11-05T18:10:08.374Z,11.91
2022-11-05T18:12:36.012Z,11.93
2022-11-05T18:15:03.987Z,11.93
2022-11-05T18:17:31.589Z,11.89
2022-11-05T18:19:59.256Z,11.91
2022-11-05T18:22:28.289Z,11.91
2022-11-05T18:24:55.883Z,11.92
2022-11-05T18:27:24.501Z,11.88
2022-11-05T18:29:52.242Z,11.89
2022-11-05T18:32:19.909Z,11.88
2022-11-05T18:34:47.547Z,11.88
2022-11-05T18:37:15.331Z,11.89
2022-11-05T18:39:44.552Z,11.89
2022-11-05T18:42:12.354Z,11.89
2022-11-05T18:44:39.987Z,11.89
2022-11-05T18:47:07.950Z,11.88
2022-11-05T18:49:36.142Z,11.89
2022-11-05T18:52:03.865Z,11.91
2022-11-05T18:54:31.729Z,11.93
2022-11-05T18:57:00.757Z,11.94
2022-11-05T18:59:38.833Z,11.90
2022-11-05T19:02:07.184Z,11.91
2022-11-05T19:04:36.102Z,11.91
2022-11-05T19:07:05.554Z,11.91
2022-11-05T19:09:33.695Z,11.89
2022-11-05T19:12:03.325Z,11.92
2022-11-05T19:14:31.148Z,11.94
2022-11-05T19:16:59.163Z,11.92
2022-11-05T19:19:27.176Z,11.92
2022-11-05T19:21:55.166Z,11.94
2022-11-05T19:24:22.778Z,11.95
2022-11-05T19:26:50.497Z,11.95
2022-11-05T19:29:19.601Z,11.92
2022-11-05T19:31:47.608Z,11.97
2022-11-05T19:34:15.279Z,11.96
2022-11-05T19:36:43.272Z,11.98
2022-11-05T19:39:13.605Z,11.98
2022-11-05T19:41:41.241Z,11.98
2022-11-05T19:44:08.981Z,12.02
2022-11-05T19:46:38.440Z,12.03
2022-11-05T19:49:06.055Z,12.03
2022-11-05T19:51:34.282Z,12.01
2022-11-05T19:54:02.948Z,12.03
2022-11-05T19:56:32.438Z,12.02
2022-11-05T19:59:00.738Z,12.02
2022-11-05T20:01:29.450Z,12.02
2022-11-05T20:03:59.347Z,12.03
2022-11-05T20:06:31.983Z,12.04
2022-11-05T20:11:50.253Z,12.02
2022-11-05T20:14:18.072Z,12.03
2022-11-05T20:16:46.818Z,12.01
2022-11-05T20:19:18.452Z,12.00
2022-11-05T20:21:46.287Z,11.99
2022-11-05T20:24:22.098Z,12.01
2022-11-05T20:26:51.621Z,12.00
2022-11-05T20:29:19.350Z,12.00
2022-11-05T20:31:47.002Z,12.01
2022-11-05T20:34:16.038Z,12.01
2022-11-05T20:36:43.765Z,12.01
2022-11-05T20:39:11.991Z,12.01
2022-11-05T20:41:39.884Z,12.01
2022-11-05T20:44:07.771Z,12.00
2022-11-05T20:46:35.473Z,11.97
2022-11-05T20:49:03.334Z,11.96
2022-11-05T20:51:32.445Z,11.98
2022-11-05T20:54:01.334Z,11.96
2022-11-05T20:56:31.289Z,11.96
2022-11-05T20:59:00.231Z,11.94
2022-11-05T21:01:29.209Z,11.94
2022-11-05T21:03:57.101Z,11.92
2022-11-05T21:06:25.097Z,11.95
2022-11-05T21:08:54.060Z,11.95
2022-11-05T21:11:22.044Z,11.95
2022-11-05T21:13:50.146Z,11.92
2022-11-05T21:16:19.001Z,11.94
2022-11-05T21:18:47.584Z,11.94
2022-11-05T21:21:17.391Z,11.98
2022-11-05T21:23:45.086Z,11.97
2022-11-05T21:26:16.728Z,11.94
2022-11-05T21:28:44.497Z,11.95
2022-11-05T21:31:12.339Z,11.95
2022-11-05T21:33:39.956Z,11.94
2022-11-05T21:36:08.990Z,11.91
2022-11-05T21:38:36.856Z,11.91
2022-11-05T21:41:05.164Z,11.88
2022-11-05T21:43:34.833Z,11.89
2022-11-05T21:46:03.769Z,11.89
2022-11-05T21:48:31.977Z,11.88
2022-11-05T21:51:17.017Z,11.84
2022-11-05T21:54:02.351Z,11.84
2022-11-05T21:56:47.590Z,11.83
2022-11-05T21:59:36.320Z,11.85
2022-11-05T22:02:04.149Z,11.85
2022-11-05T22:04:33.178Z,11.86
2022-11-05T22:07:01.216Z,11.85
2022-11-05T22:09:29.041Z,11.85
2022-11-05T22:11:56.864Z,11.86
2022-11-05T22:14:26.142Z,11.83
2022-11-05T22:16:53.928Z,11.83
2022-11-05T22:19:22.151Z,11.85
2022-11-05T22:21:50.067Z,11.84
2022-11-05T22:24:17.685Z,11.82
2022-11-05T22:26:45.717Z,11.83
2022-11-05T22:29:13.559Z,11.80
2022-11-05T22:31:42.779Z,11.83
2022-11-05T22:34:11.458Z,11.79
2022-11-05T22:36:39.280Z,11.84
2022-11-05T22:39:07.167Z,11.81
2022-11-05T22:41:35.191Z,11.79
2022-11-05T22:44:03.532Z,11.79
2022-11-05T22:46:31.471Z,11.78
2022-11-05T22:49:01.119Z,11.78
2022-11-05T22:51:30.639Z,11.78
2022-11-05T22:53:58.769Z,11.80
2022-11-05T22:56:28.062Z,11.80
2022-11-05T22:58:56.045Z,11.77
2022-11-05T23:01:25.190Z,11.77
2022-11-05T23:03:53.944Z,11.77
2022-11-05T23:06:46.749Z,11.76
2022-11-05T23:09:34.629Z,11.73
2022-11-05T23:12:03.479Z,11.68
2022-11-05T23:14:31.212Z,11.67
2022-11-05T23:17:12.736Z,11.69
2022-11-05T23:19:58.047Z,11.67
2022-11-05T23:22:47.135Z,11.65
2022-11-05T23:25:17.563Z,11.63
2022-11-05T23:27:46.726Z,11.63
2022-11-05T23:30:16.149Z,11.63
2022-11-05T23:32:42.945Z,11.59
2022-11-05T23:35:10.624Z,11.60
2022-11-05T23:37:56.995Z,11.61
2022-11-05T23:40:26.255Z,11.58
2022-11-05T23:43:11.841Z,11.56
2022-11-05T23:45:57.924Z,11.58
2022-11-05T23:48:28.902Z,11.59
2022-11-05T23:50:59.187Z,11.52
2022-11-05T23:53:29.004Z,11.55
2022-11-05T23:56:00.319Z,11.52
2022-11-05T23:58:27.940Z,11.51
